createdAt,value
2017-06-05T00:02:25.893Z,1.90
2017-06-05T00:04:56.053Z,2.28
2017-06-05T00:07:26.131Z,1.90
2017-06-05T00:09:56.140Z,2.05
2017-06-05T00:12:26.605Z,2.22
2017-06-05T00:14:56.763Z,2.60
2017-06-05T00:17:28.460Z,2.03
2017-06-05T00:19:59.047Z,2.40
2017-06-05T00:22:29.552Z,2.62
2017-06-05T00:24:59.668Z,2.65
2017-06-05T00:27:29.825Z,3.35
2017-06-05T00:29:59.951Z,4.30
2017-06-05T00:32:30.124Z,2.50
2017-06-05T00:35:00.196Z,3.28
2017-06-05T00:37:31.463Z,2.72
2017-06-05T00:40:01.577Z,2.65
2017-06-05T00:42:31.616Z,2.45
2017-06-05T00:45:01.706Z,3.47
2017-06-05T00:47:33.393Z,2.75
2017-06-05T00:50:03.601Z,2.72
2017-06-05T00:52:33.811Z,2.80
2017-06-05T00:55:04.724Z,2.55
2017-06-05T00:57:35.060Z,2.60
2017-06-05T01:00:05.164Z,2.42
2017-06-05T01:02:35.169Z,2.75
2017-06-05T01:05:08.260Z,2.33
2017-06-05T01:07:38.292Z,2.75
2017-06-05T01:10:08.422Z,2.80
2017-06-05T01:12:38.475Z,2.67
2017-06-05T01:15:08.575Z,3.30
2017-06-05T01:17:41.180Z,3.00
2017-06-05T01:20:13.812Z,2.37
2017-06-05T01:22:43.897Z,3.05
2017-06-05T01:25:13.982Z,3.05
2017-06-05T01:27:45.132Z,2.83
2017-06-05T01:30:15.259Z,2.50
2017-06-05T01:32:45.465Z,4.72
2017-06-05T01:35:15.552Z,3.00
2017-06-05T01:37:48.454Z,2.33
2017-06-05T01:40:21.585Z,3.05
2017-06-05T01:42:52.654Z,3.20
2017-06-05T01:45:28.031Z,3.10
2017-06-05T01:47:59.400Z,2.67
2017-06-05T01:50:30.597Z,2.80
2017-06-05T01:53:01.643Z,3.15
2017-06-05T01:55:31.689Z,3.70
2017-06-05T01:58:02.695Z,2.78
2017-06-05T02:00:32.699Z,3.25
2017-06-05T02:03:02.699Z,3.37
2017-06-05T02:05:32.883Z,2.80
2017-06-05T02:08:03.437Z,3.10
2017-06-05T02:10:35.363Z,3.08
2017-06-05T02:13:05.828Z,2.10
2017-06-05T02:15:35.861Z,3.05
2017-06-05T02:18:06.076Z,2.70
2017-06-05T02:20:36.641Z,3.22
2017-06-05T02:23:06.888Z,2.42
2017-06-05T02:25:36.876Z,3.10
2017-06-05T02:28:07.836Z,3.42
2017-06-05T02:30:38.208Z,3.20
2017-06-05T02:33:09.024Z,2.78
2017-06-05T02:35:39.441Z,3.03
2017-06-05T02:38:10.230Z,3.00
2017-06-05T02:40:40.244Z,2.20
2017-06-05T02:43:10.316Z,2.58
2017-06-05T02:45:40.824Z,2.75
2017-06-05T02:48:11.030Z,3.00
2017-06-05T02:50:41.969Z,3.20
2017-06-05T02:53:13.725Z,3.30
2017-06-05T02:55:45.172Z,2.85
2017-06-05T02:58:15.592Z,2.70
2017-06-05T03:00:45.625Z,2.78
2017-06-05T03:03:15.725Z,2.28
2017-06-05T03:05:46.280Z,2.60
2017-06-05T03:08:16.365Z,2.15
2017-06-05T03:10:47.119Z,2.70
2017-06-05T03:13:18.167Z,2.67
2017-06-05T03:15:48.690Z,2.78
2017-06-05T03:18:20.668Z,2.40
2017-06-05T03:20:50.709Z,3.30
2017-06-05T03:24:40.011Z,2.65
2017-06-05T03:27:10.184Z,2.55
2017-06-05T03:29:40.719Z,2.53
2017-06-05T03:32:10.938Z,2.55
2017-06-05T03:34:41.036Z,2.40
2017-06-05T03:37:11.069Z,2.92
2017-06-05T03:39:41.661Z,2.53
2017-06-05T03:42:11.736Z,3.37
2017-06-05T03:46:01.452Z,2.50
2017-06-05T03:48:32.373Z,2.72
2017-06-05T03:51:02.460Z,2.87
2017-06-05T03:53:33.071Z,2.60
2017-06-05T03:56:03.146Z,3.05
2017-06-05T03:58:33.224Z,2.80
2017-06-05T04:01:03.324Z,4.00
2017-06-05T04:03:33.417Z,3.53
2017-06-05T04:06:03.498Z,3.40
2017-06-05T04:08:33.981Z,3.35
2017-06-05T04:11:04.064Z,2.80
2017-06-05T04:13:34.659Z,3.17
2017-06-05T04:16:04.778Z,2.97
2017-06-05T04:18:35.699Z,3.10
2017-06-05T04:21:06.045Z,3.30
2017-06-05T04:23:37.576Z,3.30
2017-06-05T04:26:07.735Z,3.10
2017-06-05T04:28:37.721Z,3.40
2017-06-05T04:31:08.062Z,2.10
2017-06-05T04:33:38.126Z,3.08
2017-06-05T04:36:08.437Z,2.80
2017-06-05T04:38:40.002Z,3.20
2017-06-05T04:41:10.236Z,2.87
2017-06-05T04:43:40.432Z,2.90
2017-06-05T04:46:11.142Z,2.80
2017-06-05T04:48:41.536Z,3.00
2017-06-05T04:51:13.435Z,3.90
2017-06-05T04:53:43.900Z,2.80
2017-06-05T04:56:14.048Z,2.95
2017-06-05T04:58:44.345Z,3.08
2017-06-05T05:01:14.588Z,2.78
2017-06-05T05:03:45.021Z,2.47
2017-06-05T05:06:15.295Z,2.90
2017-06-05T05:08:45.459Z,2.50
2017-06-05T05:11:16.540Z,2.78
2017-06-05T05:13:47.552Z,2.28
2017-06-05T05:16:17.987Z,2.40
2017-06-05T05:18:49.308Z,2.83
2017-06-05T05:21:20.737Z,2.40
2017-06-05T05:23:51.368Z,2.87
2017-06-05T05:26:21.528Z,2.92
2017-06-05T05:28:51.671Z,2.40
2017-06-05T05:31:22.142Z,2.15
2017-06-05T05:33:52.295Z,2.25
2017-06-05T05:36:22.397Z,2.58
2017-06-05T05:38:52.925Z,2.40
2017-06-05T05:41:23.629Z,2.10
2017-06-05T05:43:53.763Z,2.23
2017-06-05T05:46:24.286Z,1.98
2017-06-05T05:48:54.356Z,2.10
2017-06-05T05:51:24.451Z,1.93
2017-06-05T05:53:54.973Z,2.00
2017-06-05T05:56:25.107Z,2.13
2017-06-05T05:58:55.326Z,1.83
2017-06-05T06:01:25.870Z,2.63
2017-06-05T06:03:56.009Z,2.40
2017-06-05T06:06:26.103Z,2.10
2017-06-05T06:08:58.803Z,2.00
2017-06-05T06:11:28.974Z,2.03
2017-06-05T06:14:00.405Z,2.60
2017-06-05T06:16:31.159Z,2.97
2017-06-05T06:19:02.749Z,2.00
2017-06-05T06:21:32.914Z,1.93
2017-06-05T06:24:03.225Z,2.10
2017-06-05T06:26:34.164Z,2.60
2017-06-05T06:29:04.734Z,1.73
2017-06-05T06:31:34.782Z,2.10
2017-06-05T06:34:05.307Z,2.60
2017-06-05T06:36:35.521Z,2.20
2017-06-05T06:39:06.621Z,2.17
2017-06-05T06:41:39.014Z,2.13
2017-06-05T06:44:11.145Z,2.20
2017-06-05T06:46:41.567Z,2.20
2017-06-05T06:49:13.025Z,2.10
2017-06-05T06:51:43.738Z,2.10
2017-06-05T06:54:13.800Z,2.37
2017-06-05T06:56:44.071Z,2.13
2017-06-05T06:59:14.331Z,2.17
2017-06-05T07:01:44.400Z,2.30
2017-06-05T07:04:14.459Z,2.17
2017-06-05T07:06:45.117Z,2.90
2017-06-05T07:09:17.342Z,2.03
2017-06-05T07:11:47.952Z,1.87
2017-06-05T07:14:23.175Z,1.30
2017-06-05T07:16:53.540Z,1.60
2017-06-05T07:19:24.032Z,1.50
2017-06-05T07:21:55.797Z,1.57
2017-06-05T07:24:26.506Z,2.30
2017-06-05T07:26:57.241Z,1.40
2017-06-05T07:29:28.722Z,1.93
2017-06-05T07:31:59.945Z,1.40
2017-06-05T07:34:30.131Z,1.40
2017-06-05T07:37:01.127Z,1.70
2017-06-05T07:39:31.937Z,1.17
2017-06-05T07:42:03.357Z,2.20
2017-06-05T07:44:33.652Z,1.53
2017-06-05T07:47:04.087Z,1.97
2017-06-05T07:49:38.014Z,1.40
2017-06-05T07:52:09.007Z,1.50
2017-06-05T07:54:39.503Z,1.70
2017-06-05T07:57:10.658Z,2.00
2017-06-05T07:59:41.241Z,1.90
2017-06-05T08:02:12.811Z,1.60
2017-06-05T08:04:42.957Z,1.67
2017-06-05T08:07:13.228Z,2.20
2017-06-05T08:09:43.286Z,2.13
2017-06-05T08:12:16.080Z,1.83
2017-06-05T08:14:46.309Z,1.80
2017-06-05T08:17:23.055Z,2.40
2017-06-05T08:19:53.559Z,2.33
2017-06-05T08:22:23.812Z,2.00
2017-06-05T08:24:53.957Z,1.70
2017-06-05T08:27:24.327Z,2.20
2017-06-05T08:29:55.917Z,2.10
2017-06-05T08:32:26.399Z,2.00
2017-06-05T08:34:56.686Z,2.27
2017-06-05T08:37:27.913Z,2.20
2017-06-05T08:39:58.492Z,2.80
2017-06-05T08:42:28.768Z,2.00
2017-06-05T08:44:58.814Z,2.10
2017-06-05T08:47:28.894Z,2.60
2017-06-05T08:49:59.570Z,2.53
2017-06-05T08:52:33.388Z,2.60
2017-06-05T08:55:03.821Z,3.00
2017-06-05T08:57:33.932Z,1.77
2017-06-05T09:00:04.173Z,2.10
2017-06-05T09:02:34.271Z,2.07
2017-06-05T09:05:05.837Z,2.50
2017-06-05T09:07:36.183Z,2.13
2017-06-05T09:10:06.469Z,2.90
2017-06-05T09:12:39.634Z,2.10
2017-06-05T09:15:10.636Z,2.90
2017-06-05T09:17:41.316Z,1.90
2017-06-05T09:20:13.201Z,1.77
2017-06-05T09:22:43.480Z,2.13
2017-06-05T09:25:13.960Z,2.63
2017-06-05T09:27:44.268Z,2.43
2017-06-05T09:30:14.316Z,2.30
2017-06-05T09:32:44.332Z,2.53
2017-06-05T09:35:14.366Z,2.30
2017-06-05T09:37:44.467Z,2.13
2017-06-05T09:40:14.572Z,1.30
2017-06-05T09:42:45.243Z,1.80
2017-06-05T09:45:15.307Z,1.70
2017-06-05T09:47:46.543Z,1.80
2017-06-05T09:50:16.775Z,1.83
2017-06-05T09:52:47.710Z,1.10
2017-06-05T09:55:17.924Z,1.17
2017-06-05T09:57:49.380Z,1.73
2017-06-05T10:00:20.125Z,1.60
2017-06-05T10:02:50.270Z,1.50
2017-06-05T10:05:20.410Z,1.60
2017-06-05T10:07:50.460Z,1.63
2017-06-05T10:10:20.577Z,1.20
2017-06-05T10:12:51.319Z,1.70
2017-06-05T10:15:21.856Z,1.63
2017-06-05T10:17:52.568Z,2.83
2017-06-05T10:20:22.737Z,2.10
2017-06-05T10:22:53.069Z,2.10
2017-06-05T10:25:23.358Z,2.27
2017-06-05T10:27:55.415Z,1.57
2017-06-05T10:30:26.676Z,1.93
2017-06-05T10:32:58.415Z,1.30
2017-06-05T10:35:30.248Z,1.73
2017-06-05T10:38:01.161Z,2.47
2017-06-05T10:40:31.397Z,2.07
2017-06-05T10:43:01.646Z,1.60
2017-06-05T10:45:32.957Z,2.03
2017-06-05T10:48:04.058Z,1.57
2017-06-05T10:50:34.824Z,1.73
2017-06-05T10:53:06.217Z,1.40
2017-06-05T10:55:39.240Z,1.57
2017-06-05T10:58:10.829Z,1.43
2017-06-05T11:00:41.640Z,2.83
2017-06-05T11:03:11.899Z,2.23
2017-06-05T11:05:45.011Z,1.47
2017-06-05T11:08:17.068Z,1.47
2017-06-05T11:10:47.913Z,2.90
2017-06-05T11:13:18.399Z,1.60
2017-06-05T11:15:48.537Z,1.83
2017-06-05T11:18:18.684Z,1.33
2017-06-05T11:20:49.442Z,2.47
2017-06-05T11:23:20.846Z,1.33
2017-06-05T11:25:51.321Z,1.57
2017-06-05T11:28:22.884Z,1.27
2017-06-05T11:30:53.096Z,1.97
2017-06-05T11:33:41.270Z,1.70
2017-06-05T11:36:14.612Z,1.80
2017-06-05T11:38:44.929Z,1.40
2017-06-05T11:41:15.187Z,2.20
2017-06-05T11:43:45.570Z,1.50
2017-06-05T11:46:16.104Z,1.33
2017-06-05T11:48:47.142Z,1.10
2017-06-05T11:51:18.867Z,1.90
2017-06-05T11:53:49.455Z,1.77
2017-06-05T11:56:21.034Z,1.43
2017-06-05T11:58:51.895Z,1.23
2017-06-05T12:01:28.435Z,1.90
2017-06-05T12:04:00.552Z,1.80
2017-06-05T12:06:32.042Z,1.30
2017-06-05T12:09:04.194Z,1.30
2017-06-05T12:11:34.605Z,1.57
2017-06-05T12:14:06.747Z,2.17
2017-06-05T12:16:36.986Z,1.77
2017-06-05T12:19:24.558Z,2.73
2017-06-05T12:22:20.368Z,2.77
2017-06-05T12:24:56.367Z,2.30
2017-06-05T12:27:28.374Z,2.10
2017-06-05T12:29:59.402Z,2.27
2017-06-05T12:32:30.222Z,1.60
2017-06-05T12:35:01.737Z,2.03
2017-06-05T12:37:34.583Z,2.20
2017-06-05T12:40:04.762Z,1.60
2017-06-05T12:42:36.462Z,1.77
2017-06-05T12:45:08.411Z,1.67
2017-06-05T12:47:38.733Z,2.60
2017-06-05T12:50:09.545Z,1.90
2017-06-05T12:52:39.771Z,1.00
2017-06-05T12:55:10.446Z,0.90
2017-06-05T12:57:41.779Z,1.07
2017-06-05T13:00:14.050Z,1.20
2017-06-05T13:02:45.304Z,1.77
2017-06-05T13:05:15.864Z,1.67
2017-06-05T13:07:46.076Z,1.40
2017-06-05T13:10:16.925Z,1.47
2017-06-05T13:12:48.038Z,1.43
2017-06-05T13:15:20.192Z,1.10
2017-06-05T13:17:50.545Z,0.83
2017-06-05T13:20:23.068Z,1.20
2017-06-05T13:22:54.318Z,0.90
2017-06-05T13:25:25.720Z,1.53
2017-06-05T13:27:57.357Z,1.47
2017-06-05T13:30:32.366Z,0.87
2017-06-05T13:33:03.459Z,1.03
2017-06-05T13:35:35.478Z,0.80
2017-06-05T13:38:06.080Z,1.40
2017-06-05T13:40:44.158Z,0.80
2017-06-05T13:43:15.412Z,0.87
2017-06-05T13:45:47.344Z,1.20
2017-06-05T13:48:20.490Z,0.90
2017-06-05T13:50:51.078Z,1.30
2017-06-05T13:53:22.319Z,1.30
2017-06-05T13:55:54.025Z,0.90
2017-06-05T13:58:25.213Z,2.23
2017-06-05T14:00:59.272Z,1.40
2017-06-05T14:03:29.636Z,4.30
2017-06-05T14:05:59.679Z,1.20
2017-06-05T14:08:30.532Z,1.40
2017-06-05T14:11:12.869Z,1.00
2017-06-05T14:13:44.016Z,1.10
2017-06-05T14:16:16.472Z,1.10
2017-06-05T14:18:46.782Z,2.43
2017-06-05T14:22:36.784Z,0.87
2017-06-05T14:25:06.920Z,1.47
2017-06-05T14:27:37.085Z,1.70
2017-06-05T14:30:07.233Z,1.57
2017-06-05T14:32:43.719Z,1.07
2017-06-05T14:35:15.588Z,1.03
2017-06-05T14:37:45.843Z,1.73
2017-06-05T14:40:25.125Z,1.20
2017-06-05T14:42:56.254Z,1.27
2017-06-05T14:45:30.547Z,1.50
2017-06-05T14:48:05.960Z,1.20
2017-06-05T14:50:36.267Z,1.27
2017-06-05T14:53:08.253Z,2.93
2017-06-05T14:55:38.982Z,2.97
2017-06-05T14:58:10.188Z,2.00
2017-06-05T15:00:41.176Z,3.27
2017-06-05T15:03:13.098Z,3.03
2017-06-05T15:05:43.340Z,3.87
2017-06-05T15:08:13.511Z,2.30
2017-06-05T15:10:46.103Z,4.17
2017-06-05T15:13:17.236Z,18.57
2017-06-05T15:15:47.327Z,8.70
2017-06-05T15:18:17.994Z,14.87
2017-06-05T15:20:48.817Z,8.37
2017-06-05T15:23:19.470Z,1.50
2017-06-05T15:25:50.116Z,3.00
2017-06-05T15:28:20.346Z,1.80
2017-06-05T15:30:51.457Z,2.00
2017-06-05T15:33:23.945Z,2.13
2017-06-05T15:35:55.219Z,1.00
2017-06-05T15:38:25.627Z,1.20
2017-06-05T15:40:56.210Z,1.00
2017-06-05T15:43:26.428Z,1.17
2017-06-05T15:45:57.633Z,1.17
2017-06-05T15:48:28.917Z,0.77
2017-06-05T15:50:59.551Z,1.00
2017-06-05T15:53:30.698Z,1.10
2017-06-05T15:56:02.348Z,1.53
2017-06-05T15:58:32.686Z,1.40
2017-06-05T16:01:03.227Z,1.00
2017-06-05T16:03:34.752Z,0.70
2017-06-05T16:06:05.033Z,1.40
2017-06-05T16:08:35.490Z,0.97
2017-06-05T16:11:05.749Z,1.20
2017-06-05T16:13:36.099Z,1.20
2017-06-05T16:16:06.930Z,2.33
2017-06-05T16:18:37.682Z,1.70
2017-06-05T16:21:07.826Z,1.50
2017-06-05T16:23:37.936Z,1.73
2017-06-05T16:26:09.680Z,0.70
2017-06-05T16:28:41.551Z,0.87
2017-06-05T16:31:12.720Z,1.43
2017-06-05T16:33:44.299Z,0.80
2017-06-05T16:36:14.518Z,1.10
2017-06-05T16:38:45.583Z,0.63
2017-06-05T16:41:15.733Z,1.93
2017-06-05T16:43:47.028Z,1.50
2017-06-05T16:46:17.310Z,1.17
2017-06-05T16:48:49.025Z,1.20
2017-06-05T16:51:20.074Z,0.97
2017-06-05T16:53:50.645Z,1.60
2017-06-05T16:56:22.478Z,0.77
2017-06-05T16:58:53.471Z,1.50
2017-06-05T17:01:23.823Z,0.83
2017-06-05T17:03:55.727Z,0.70
2017-06-05T17:06:29.691Z,1.37
2017-06-05T17:09:01.313Z,1.10
2017-06-05T17:11:32.945Z,1.20
2017-06-05T17:14:04.226Z,0.90
2017-06-05T17:16:38.777Z,0.90
2017-06-05T17:19:11.998Z,0.90
2017-06-05T17:21:46.111Z,1.43
2017-06-05T17:24:19.316Z,0.77
2017-06-05T17:26:51.656Z,0.90
2017-06-05T17:29:24.138Z,0.70
2017-06-05T17:31:56.204Z,1.60
2017-06-05T17:34:28.004Z,1.30
2017-06-05T17:37:01.236Z,1.30
2017-06-05T17:39:34.566Z,1.10
2017-06-05T17:42:24.572Z,1.97
2017-06-05T17:44:57.705Z,1.73
2017-06-05T17:47:30.358Z,0.90
2017-06-05T17:50:03.211Z,1.30
2017-06-05T17:52:35.717Z,1.10
2017-06-05T17:55:06.694Z,1.30
2017-06-05T17:57:50.565Z,1.03
2017-06-05T18:00:21.454Z,1.00
2017-06-05T18:02:52.305Z,0.80
2017-06-05T18:05:24.761Z,1.10
2017-06-05T18:07:55.032Z,1.27
2017-06-05T18:10:25.727Z,0.77
2017-06-05T18:12:56.269Z,1.10
2017-06-05T18:15:26.421Z,1.00
2017-06-05T18:17:57.801Z,0.93
2017-06-05T18:20:28.002Z,0.83
2017-06-05T18:22:58.098Z,0.77
2017-06-05T18:25:28.518Z,0.77
2017-06-05T18:27:59.472Z,1.00
2017-06-05T18:30:30.212Z,0.80
2017-06-05T18:33:00.372Z,1.13
2017-06-05T18:35:30.519Z,0.80
2017-06-05T18:38:00.724Z,1.43
2017-06-05T18:40:31.341Z,0.97
2017-06-05T18:43:01.682Z,0.63
2017-06-05T18:45:31.869Z,0.70
2017-06-05T18:48:02.010Z,1.60
2017-06-05T18:50:32.194Z,1.20
2017-06-05T18:53:02.907Z,1.47
2017-06-05T18:55:33.842Z,0.97
2017-06-05T18:58:03.995Z,0.83
2017-06-05T19:00:34.233Z,0.90
2017-06-05T19:03:08.718Z,0.83
2017-06-05T19:05:40.215Z,1.00
2017-06-05T19:08:10.448Z,0.90
2017-06-05T19:10:41.521Z,0.80
2017-06-05T19:13:12.773Z,1.30
2017-06-05T19:15:46.114Z,1.20
2017-06-05T19:18:17.617Z,1.30
2017-06-05T19:20:48.233Z,1.37
2017-06-05T19:23:18.903Z,1.00
2017-06-05T19:25:50.105Z,1.10
2017-06-05T19:28:20.784Z,1.43
2017-06-05T19:30:51.054Z,1.50
2017-06-05T19:33:21.104Z,1.00
2017-06-05T19:35:52.144Z,1.37
2017-06-05T19:38:22.512Z,1.40
2017-06-05T19:40:57.309Z,1.57
2017-06-05T19:43:27.347Z,1.50
2017-06-05T19:45:59.325Z,2.10
2017-06-05T19:48:29.330Z,1.60
2017-06-05T19:51:01.394Z,1.90
2017-06-05T19:53:31.409Z,2.37
2017-06-05T19:56:01.493Z,2.07
2017-06-05T19:58:31.751Z,1.47
2017-06-05T20:01:02.306Z,1.40
2017-06-05T20:03:32.462Z,1.17
2017-06-05T20:06:04.024Z,1.33
2017-06-05T20:08:34.174Z,1.10
2017-06-05T20:11:04.878Z,1.67
2017-06-05T20:13:35.084Z,1.20
2017-06-05T20:16:05.350Z,1.33
2017-06-05T20:18:35.765Z,1.30
2017-06-05T20:21:08.025Z,1.40
2017-06-05T20:23:39.045Z,1.33
2017-06-05T20:26:11.571Z,1.27
2017-06-05T20:28:42.262Z,1.53
2017-06-05T20:31:13.003Z,1.83
2017-06-05T20:33:43.369Z,2.37
2017-06-05T20:36:14.760Z,1.23
2017-06-05T20:38:44.962Z,1.50
2017-06-05T20:41:16.036Z,1.50
2017-06-05T20:43:46.344Z,1.80
2017-06-05T20:46:17.629Z,1.80
2017-06-05T20:48:48.448Z,1.63
2017-06-05T20:51:19.661Z,1.83
2017-06-05T20:53:50.070Z,1.77
2017-06-05T20:56:20.536Z,1.80
2017-06-05T20:58:50.965Z,1.63
2017-06-05T21:01:21.117Z,1.80
2017-06-05T21:03:51.175Z,2.00
2017-06-05T21:06:21.210Z,1.50
2017-06-05T21:08:51.687Z,1.93
2017-06-05T21:11:21.893Z,1.70
2017-06-05T21:13:52.028Z,1.93
2017-06-05T21:16:23.279Z,1.92
2017-06-05T21:18:55.153Z,2.00
2017-06-05T21:21:25.446Z,1.85
2017-06-05T21:23:56.125Z,1.97
2017-06-05T21:26:27.298Z,2.33
2017-06-05T21:28:57.513Z,2.30
2017-06-05T21:31:27.870Z,1.80
2017-06-05T21:33:58.860Z,2.63
2017-06-05T21:36:29.906Z,1.87
2017-06-05T21:39:00.570Z,2.10
2017-06-05T21:41:31.510Z,1.97
2017-06-05T21:44:01.756Z,2.13
2017-06-05T21:46:32.008Z,2.10
2017-06-05T21:49:02.384Z,2.97
2017-06-05T21:51:33.763Z,2.17
2017-06-05T21:54:04.956Z,1.80
2017-06-05T21:56:35.353Z,2.20
2017-06-05T21:59:05.838Z,2.57
2017-06-05T22:01:36.016Z,1.83
2017-06-05T22:04:06.009Z,1.57
2017-06-05T22:06:36.053Z,1.90
2017-06-05T22:09:06.285Z,2.60
2017-06-05T22:11:36.374Z,2.20
2017-06-05T22:14:41.635Z,2.03
2017-06-05T22:17:11.801Z,2.37
2017-06-05T22:19:41.887Z,2.53
2017-06-05T22:22:12.802Z,1.70
2017-06-05T22:24:43.450Z,2.17
2017-06-05T22:27:14.322Z,1.87
2017-06-05T22:29:44.309Z,2.10
2017-06-05T22:32:15.136Z,2.37
2017-06-05T22:34:45.208Z,2.67
2017-06-05T22:37:15.505Z,2.97
2017-06-05T22:39:45.770Z,2.90
2017-06-05T22:42:15.777Z,2.27
2017-06-05T22:44:46.565Z,3.00
2017-06-05T22:47:17.108Z,2.83
2017-06-05T22:49:48.293Z,3.23
2017-06-05T22:52:18.566Z,2.40
2017-06-05T22:54:48.665Z,3.13
2017-06-05T22:57:20.585Z,3.23
2017-06-05T22:59:51.257Z,3.00
2017-06-05T23:02:21.937Z,3.33
2017-06-05T23:04:52.689Z,4.73
2017-06-05T23:07:23.576Z,3.70
2017-06-05T23:09:54.501Z,3.63
2017-06-05T23:12:25.607Z,3.50
2017-06-05T23:14:55.637Z,3.80
2017-06-05T23:17:26.049Z,4.00
2017-06-05T23:19:56.193Z,4.40
2017-06-05T23:22:26.635Z,3.80
2017-06-05T23:24:56.993Z,3.23
2017-06-05T23:27:29.150Z,4.30
2017-06-05T23:29:59.763Z,4.17
2017-06-05T23:32:31.624Z,4.33
2017-06-05T23:35:01.945Z,3.80
2017-06-05T23:37:33.752Z,4.47
2017-06-05T23:40:06.006Z,4.33
2017-06-05T23:42:37.756Z,4.80
2017-06-05T23:45:08.539Z,4.63
2017-06-05T23:47:39.205Z,4.27
2017-06-05T23:50:11.597Z,4.70
2017-06-05T23:52:42.297Z,5.87
2017-06-05T23:55:13.194Z,5.07
2017-06-05T23:57:44.509Z,3.83
